aviador You're here:

KGLS Decoded Metar

GALVESTON in TX, USA
Report Time2017-09-23 18:52:00
UTC Time2017-09-23 20:05:59
Flight Rules Old
Wind100° at 09 kt
W.Decomp.*RWY 14: 6.7 kt HW 6 kt LCW
RWY 18: 1.3 kt HW 8.9 kt LCW
W.Rank100° ranks 16
Current wind is below 100° avg. (9.1)
Visibility9999 m
Phenomena:N/A
Clouds:Scattered 022 Hf
Expected CloudBase > 3,200 ft AGL from Temp-Dew spread
CeilingNone
Temp32°C (ISA +17)
Dew Point24°C (63% RH)
Heat Index38.0°C
QNH1013 hPa
Density Alt2,356 ft
Elevation20 ft
Report Wrong Elevation
Raw Report
METAR KGLS 231852Z 10009KT 10SM SCT022 32/24 A2992=

Extra information for KGLS:More info

Metar Taf Metar & Taf Last 4 Metars F.Rules Stats Wind Profile Meteogram Temp Stats Airport Information Weather charts Add Link Nearby VenuesMetar ALERT Operation Metar Decoded Social comments

AIRNAV info for KGLS